createdAt,value
2017-12-27T00:00:24.190Z,0.00
2017-12-27T00:01:24.163Z,0.00
2017-12-27T00:02:24.139Z,0.00
2017-12-27T00:03:24.120Z,0.00
2017-12-27T00:04:24.100Z,0.00
2017-12-27T00:05:24.080Z,0.00
2017-12-27T00:06:24.059Z,0.00
2017-12-27T00:07:24.080Z,0.00
2017-12-27T00:08:24.018Z,0.00
2017-12-27T00:09:23.999Z,0.00
2017-12-27T00:10:23.967Z,0.00
2017-12-27T00:11:24.060Z,0.00
2017-12-27T00:12:23.927Z,0.00
2017-12-27T00:13:23.899Z,0.00
2017-12-27T00:14:23.876Z,0.00
2017-12-27T00:15:23.862Z,0.00
2017-12-27T00:16:23.841Z,0.00
2017-12-27T00:17:23.816Z,0.00
2017-12-27T00:18:23.803Z,0.00
2017-12-27T00:19:23.771Z,0.00
2017-12-27T00:20:23.749Z,0.00
2017-12-27T00:21:23.730Z,0.00
2017-12-27T00:22:23.705Z,0.00
2017-12-27T00:23:23.678Z,0.00
2017-12-27T00:24:23.668Z,0.00
2017-12-27T00:25:23.639Z,0.00
2017-12-27T00:26:23.615Z,0.00
2017-12-27T00:27:23.588Z,0.00
2017-12-27T00:28:23.579Z,0.00
2017-12-27T00:29:23.548Z,0.00
2017-12-27T00:30:23.528Z,0.00
2017-12-27T00:31:23.508Z,0.00
2017-12-27T00:32:23.481Z,0.00
2017-12-27T00:33:23.465Z,0.00
2017-12-27T00:34:23.437Z,0.00
2017-12-27T00:35:23.418Z,0.00
2017-12-27T00:36:23.393Z,0.00
2017-12-27T00:37:23.373Z,0.00
2017-12-27T00:38:23.350Z,0.00
2017-12-27T00:39:23.338Z,0.00
2017-12-27T00:40:23.308Z,0.00
2017-12-27T00:41:23.288Z,0.00
2017-12-27T00:42:23.258Z,0.00
2017-12-27T00:43:23.238Z,0.00
2017-12-27T00:44:23.215Z,0.00
2017-12-27T00:45:23.192Z,0.00
2017-12-27T00:46:23.175Z,0.00
2017-12-27T00:47:23.149Z,0.00
2017-12-27T00:48:23.131Z,0.00
2017-12-27T00:49:23.105Z,0.00
2017-12-27T00:50:23.081Z,0.00
2017-12-27T00:51:23.059Z,0.00
2017-12-27T00:52:23.037Z,0.00
2017-12-27T00:53:23.027Z,0.00
2017-12-27T00:54:22.995Z,0.00
2017-12-27T00:55:22.971Z,0.00
2017-12-27T00:56:22.959Z,0.00
2017-12-27T00:57:22.929Z,0.00
2017-12-27T00:58:22.910Z,0.00
2017-12-27T00:59:22.884Z,0.00
2017-12-27T01:00:22.860Z,0.00
2017-12-27T01:01:22.847Z,0.00
2017-12-27T01:02:22.825Z,0.00
2017-12-27T01:03:22.801Z,0.00
2017-12-27T01:04:22.775Z,0.00
2017-12-27T01:05:22.750Z,0.00
2017-12-27T01:06:22.729Z,0.00
2017-12-27T01:07:22.702Z,0.00
2017-12-27T01:08:22.689Z,0.00
2017-12-27T01:09:22.659Z,0.00
2017-12-27T01:10:22.637Z,0.00
2017-12-27T01:11:22.620Z,0.00
2017-12-27T01:12:22.592Z,0.00
2017-12-27T01:13:22.568Z,0.00
2017-12-27T01:14:22.552Z,0.00
2017-12-27T01:15:22.532Z,0.00
2017-12-27T01:16:22.504Z,0.00
2017-12-27T01:17:22.478Z,0.00
2017-12-27T01:18:22.459Z,0.00
2017-12-27T01:19:22.437Z,0.00
2017-12-27T01:20:22.421Z,0.00
2017-12-27T01:21:22.394Z,0.00
2017-12-27T01:22:22.374Z,0.00
2017-12-27T01:23:22.347Z,0.00
2017-12-27T01:24:22.323Z,0.00
2017-12-27T01:25:22.300Z,0.00
2017-12-27T01:26:22.291Z,0.00
2017-12-27T01:27:22.259Z,0.00
2017-12-27T01:28:22.234Z,0.00
2017-12-27T01:29:22.223Z,0.00
2017-12-27T01:30:22.190Z,0.00
2017-12-27T01:31:22.167Z,0.00
2017-12-27T01:32:22.145Z,0.00
2017-12-27T01:33:22.128Z,0.00
2017-12-27T01:34:22.098Z,0.00
2017-12-27T01:35:22.079Z,0.00
2017-12-27T01:36:22.060Z,0.00
2017-12-27T01:37:22.033Z,0.00
2017-12-27T01:38:22.009Z,0.00
2017-12-27T01:39:21.988Z,0.00
2017-12-27T01:40:21.968Z,0.00
2017-12-27T01:41:21.945Z,0.00
2017-12-27T01:42:21.924Z,0.00
2017-12-27T01:43:21.898Z,0.00
2017-12-27T01:44:21.925Z,0.00
2017-12-27T01:45:21.859Z,0.00
2017-12-27T01:46:21.837Z,0.00
2017-12-27T01:47:21.817Z,0.00
2017-12-27T01:48:21.788Z,0.00
2017-12-27T01:49:21.765Z,0.00
2017-12-27T01:50:21.748Z,0.00
2017-12-27T01:51:21.728Z,0.00
2017-12-27T01:52:21.699Z,0.00
2017-12-27T01:53:21.679Z,0.00
2017-12-27T01:54:21.653Z,0.00
2017-12-27T01:55:21.630Z,0.00
2017-12-27T01:56:21.610Z,0.00
2017-12-27T01:57:21.585Z,0.00
2017-12-27T01:58:21.568Z,0.00
2017-12-27T01:59:21.543Z,0.00
2017-12-27T02:00:21.528Z,0.00
2017-12-27T02:01:21.496Z,0.00
2017-12-27T02:02:21.482Z,0.00
2017-12-27T02:03:21.460Z,0.00
2017-12-27T02:04:21.430Z,0.00
2017-12-27T02:05:21.411Z,0.00
2017-12-27T02:06:21.388Z,0.00
2017-12-27T02:07:21.370Z,0.00
2017-12-27T02:08:21.345Z,0.00
2017-12-27T02:09:21.318Z,0.00
2017-12-27T02:10:21.295Z,0.00
2017-12-27T02:11:21.278Z,0.00
2017-12-27T02:12:21.250Z,0.00
2017-12-27T02:13:21.229Z,0.00
2017-12-27T02:14:21.206Z,0.00
2017-12-27T02:15:21.183Z,0.00
2017-12-27T02:16:21.167Z,0.00
2017-12-27T02:17:21.138Z,0.00
2017-12-27T02:18:21.119Z,0.00
2017-12-27T02:19:21.102Z,0.00
2017-12-27T02:20:21.073Z,0.00
2017-12-27T02:21:21.050Z,0.00
2017-12-27T02:22:21.033Z,0.00
2017-12-27T02:23:21.008Z,0.00
2017-12-27T02:24:20.986Z,0.00
2017-12-27T02:25:20.969Z,0.00
2017-12-27T02:26:20.989Z,0.00
2017-12-27T02:27:20.916Z,0.00
2017-12-27T02:28:20.901Z,0.00
2017-12-27T02:29:20.876Z,0.00
2017-12-27T02:30:20.850Z,0.00
2017-12-27T02:31:20.828Z,0.00
2017-12-27T02:32:20.809Z,0.00
2017-12-27T02:33:20.780Z,0.00
2017-12-27T02:34:20.759Z,0.00
2017-12-27T02:35:20.738Z,0.00
2017-12-27T02:36:20.717Z,0.00
2017-12-27T02:37:20.692Z,0.00
2017-12-27T02:38:20.677Z,0.00
2017-12-27T02:39:20.652Z,0.00
2017-12-27T02:40:20.629Z,0.00
2017-12-27T02:41:20.611Z,0.00
2017-12-27T02:42:20.663Z,0.00
2017-12-27T02:43:20.558Z,0.00
2017-12-27T02:44:20.540Z,0.00
2017-12-27T02:45:20.520Z,0.00
2017-12-27T02:46:20.495Z,0.00
2017-12-27T02:47:20.471Z,0.00
2017-12-27T02:48:20.450Z,0.00
2017-12-27T02:49:20.429Z,0.00
2017-12-27T02:50:20.409Z,0.00
2017-12-27T02:51:20.381Z,0.00
2017-12-27T02:52:20.360Z,0.00
2017-12-27T02:53:20.339Z,0.00
2017-12-27T02:54:20.321Z,0.00
2017-12-27T02:55:20.296Z,0.00
2017-12-27T02:56:20.267Z,0.00
2017-12-27T02:57:20.248Z,0.00
2017-12-27T02:58:20.230Z,0.00
2017-12-27T02:59:20.210Z,0.00
2017-12-27T03:00:20.182Z,0.00
2017-12-27T03:01:20.159Z,0.00
2017-12-27T03:02:20.139Z,0.00
2017-12-27T03:03:20.115Z,0.00
2017-12-27T03:04:20.099Z,0.00
2017-12-27T03:05:20.078Z,0.00
2017-12-27T03:06:20.058Z,0.00
2017-12-27T03:07:20.026Z,0.00
2017-12-27T03:08:20.012Z,0.00
2017-12-27T03:09:19.978Z,0.00
2017-12-27T03:10:19.957Z,0.00
2017-12-27T03:11:19.935Z,0.00
2017-12-27T03:12:19.923Z,0.00
2017-12-27T03:13:19.888Z,0.00
2017-12-27T03:14:19.868Z,0.00
2017-12-27T03:15:19.851Z,0.00
2017-12-27T03:16:19.829Z,0.00
2017-12-27T03:17:19.799Z,0.00
2017-12-27T03:18:19.778Z,0.00
2017-12-27T03:19:19.759Z,0.00
2017-12-27T03:20:19.736Z,0.00
2017-12-27T03:21:19.711Z,0.00
2017-12-27T03:22:19.689Z,0.00
2017-12-27T03:23:19.668Z,0.00
2017-12-27T03:24:19.646Z,0.00
2017-12-27T03:25:19.629Z,0.00
2017-12-27T03:26:19.599Z,0.00
2017-12-27T03:27:19.578Z,0.00
2017-12-27T03:28:19.564Z,0.00
2017-12-27T03:29:19.538Z,0.00
2017-12-27T03:30:19.510Z,0.00
2017-12-27T03:31:19.490Z,0.00
2017-12-27T03:32:19.465Z,0.00
2017-12-27T03:33:19.441Z,0.00
2017-12-27T03:34:19.424Z,0.00
2017-12-27T03:35:19.398Z,0.00
2017-12-27T03:36:19.383Z,0.00
2017-12-27T03:37:19.357Z,0.00
2017-12-27T03:38:19.338Z,0.00
2017-12-27T03:39:19.313Z,0.00
2017-12-27T03:40:19.291Z,0.00
2017-12-27T03:41:19.269Z,0.00
2017-12-27T03:42:19.255Z,0.00
2017-12-27T03:43:19.231Z,0.00
2017-12-27T03:44:19.211Z,0.00
2017-12-27T03:45:19.182Z,0.00
2017-12-27T03:46:19.165Z,0.00
2017-12-27T03:47:19.138Z,0.00
2017-12-27T03:48:19.119Z,0.00
2017-12-27T03:49:19.090Z,0.00
2017-12-27T03:50:19.074Z,0.00
2017-12-27T03:51:19.053Z,0.00
2017-12-27T03:52:19.033Z,0.00
2017-12-27T03:53:19.012Z,0.00
2017-12-27T03:54:18.989Z,0.00
2017-12-27T03:55:18.971Z,0.00
2017-12-27T03:56:18.940Z,0.00
2017-12-27T03:57:18.916Z,0.00
2017-12-27T03:58:18.902Z,0.00
2017-12-27T03:59:18.869Z,0.00
2017-12-27T04:00:18.851Z,0.00
2017-12-27T04:01:18.828Z,0.00
2017-12-27T04:02:18.809Z,0.00
2017-12-27T04:03:18.787Z,0.00
2017-12-27T04:04:18.758Z,0.00
2017-12-27T04:05:18.740Z,0.00
2017-12-27T04:06:18.720Z,0.00
2017-12-27T04:07:18.695Z,0.00
2017-12-27T04:08:18.681Z,0.00
2017-12-27T04:09:18.699Z,0.00
2017-12-27T04:10:18.630Z,0.00
2017-12-27T04:11:18.610Z,0.00
2017-12-27T04:12:18.589Z,0.00
2017-12-27T04:13:18.673Z,0.00
2017-12-27T04:14:18.540Z,0.00
2017-12-27T04:15:18.518Z,0.00
2017-12-27T04:16:18.499Z,0.00
2017-12-27T04:17:18.473Z,0.00
2017-12-27T04:18:18.450Z,0.00
2017-12-27T04:19:18.436Z,0.00
2017-12-27T04:20:18.410Z,0.00
2017-12-27T04:21:18.384Z,0.00
2017-12-27T04:22:18.364Z,0.00
2017-12-27T04:23:18.347Z,0.00
2017-12-27T04:24:18.324Z,0.00
2017-12-27T04:25:18.299Z,0.00
2017-12-27T04:26:18.279Z,0.00
2017-12-27T04:27:18.259Z,0.00
2017-12-27T04:28:18.235Z,0.00
2017-12-27T04:29:18.215Z,0.00
2017-12-27T04:30:18.190Z,0.00
2017-12-27T04:31:18.170Z,0.00
2017-12-27T04:32:18.148Z,0.00
2017-12-27T04:33:18.125Z,0.00
2017-12-27T04:34:18.103Z,0.00
2017-12-27T04:35:18.088Z,0.00
2017-12-27T04:36:18.061Z,0.00
2017-12-27T04:37:18.040Z,0.00
2017-12-27T04:38:18.016Z,0.00
2017-12-27T04:39:17.993Z,0.00
2017-12-27T04:40:17.969Z,0.00
2017-12-27T04:41:17.951Z,0.00
2017-12-27T04:42:17.930Z,0.00
2017-12-27T04:43:17.909Z,0.00
2017-12-27T04:44:17.884Z,0.00
2017-12-27T04:45:17.867Z,0.00
2017-12-27T04:46:17.839Z,0.00
2017-12-27T04:47:17.818Z,0.00
2017-12-27T04:48:17.795Z,0.00
2017-12-27T04:49:17.771Z,0.00
2017-12-27T04:50:17.756Z,0.00
2017-12-27T04:51:17.731Z,0.00
2017-12-27T04:52:17.708Z,0.00
2017-12-27T04:53:17.691Z,0.00
2017-12-27T04:54:17.668Z,0.00
2017-12-27T04:55:17.644Z,0.00
2017-12-27T04:56:17.621Z,0.00
2017-12-27T04:57:17.597Z,0.00
2017-12-27T04:58:17.587Z,0.00
2017-12-27T04:59:17.559Z,0.00
2017-12-27T05:00:17.536Z,0.00
2017-12-27T05:01:17.514Z,0.00
2017-12-27T05:02:17.494Z,0.00
2017-12-27T05:03:17.469Z,0.00
2017-12-27T05:04:17.447Z,0.00
2017-12-27T05:05:17.424Z,0.00
2017-12-27T05:06:17.408Z,0.00
2017-12-27T05:07:17.389Z,0.00
2017-12-27T05:08:17.362Z,0.00
2017-12-27T05:09:17.339Z,0.00
2017-12-27T05:10:17.318Z,0.00
2017-12-27T05:11:17.399Z,0.00
2017-12-27T05:12:17.279Z,0.00
2017-12-27T05:13:17.259Z,0.00
2017-12-27T05:14:17.229Z,0.00
2017-12-27T05:15:17.219Z,0.00
2017-12-27T05:16:17.186Z,0.00
2017-12-27T05:17:17.277Z,0.00
2017-12-27T05:18:17.149Z,0.00
2017-12-27T05:19:17.129Z,0.00
2017-12-27T05:20:17.111Z,0.00
2017-12-27T05:21:17.079Z,0.00
2017-12-27T05:22:17.059Z,0.00
2017-12-27T05:23:17.044Z,0.00
2017-12-27T05:24:17.015Z,0.00
2017-12-27T05:25:17.109Z,0.00
2017-12-27T05:26:16.970Z,0.00
2017-12-27T05:27:16.949Z,0.00
2017-12-27T05:28:16.929Z,0.00
2017-12-27T05:29:16.911Z,0.00
2017-12-27T05:30:16.889Z,0.00
2017-12-27T05:31:16.868Z,0.00
2017-12-27T05:32:16.841Z,0.00
2017-12-27T05:33:16.818Z,0.00
2017-12-27T05:34:16.797Z,0.00
2017-12-27T05:35:16.777Z,0.00
2017-12-27T05:36:16.750Z,0.00
2017-12-27T05:37:16.731Z,0.00
2017-12-27T05:38:16.706Z,0.00
2017-12-27T05:39:16.696Z,0.00
2017-12-27T05:40:16.668Z,0.00
2017-12-27T05:41:16.642Z,0.00
2017-12-27T05:42:16.620Z,0.00
2017-12-27T05:43:16.600Z,0.00
2017-12-27T05:44:16.578Z,0.00
2017-12-27T05:45:16.554Z,0.00
2017-12-27T05:46:16.537Z,0.00
2017-12-27T05:47:16.510Z,0.00
2017-12-27T05:48:16.489Z,0.00
2017-12-27T05:49:16.476Z,0.00
2017-12-27T05:50:16.449Z,0.00
2017-12-27T05:51:16.431Z,0.00
2017-12-27T05:52:16.406Z,0.00
2017-12-27T05:53:16.380Z,0.00
2017-12-27T05:54:16.359Z,0.00
2017-12-27T05:55:16.339Z,0.00
2017-12-27T05:56:16.319Z,0.00
2017-12-27T05:57:16.298Z,0.00
2017-12-27T05:58:16.282Z,0.00
2017-12-27T05:59:16.250Z,0.00
2017-12-27T06:00:16.231Z,0.00
2017-12-27T06:01:16.210Z,0.00
2017-12-27T06:02:16.190Z,0.00
2017-12-27T06:03:16.165Z,0.00
2017-12-27T06:04:16.147Z,0.00
2017-12-27T06:05:16.118Z,0.00
2017-12-27T06:06:16.111Z,0.00
2017-12-27T06:07:16.075Z,0.00
2017-12-27T06:08:16.095Z,0.00
2017-12-27T06:09:16.035Z,0.00
2017-12-27T06:10:16.271Z,0.00
2017-12-27T06:11:15.988Z,0.00
2017-12-27T06:12:15.965Z,0.00
2017-12-27T06:13:15.943Z,0.00
2017-12-27T06:14:15.921Z,0.00
2017-12-27T06:15:15.907Z,0.00
2017-12-27T06:16:15.878Z,0.00
2017-12-27T06:17:15.859Z,0.00
2017-12-27T06:18:15.840Z,0.00
2017-12-27T06:19:15.814Z,0.00
2017-12-27T06:20:15.795Z,0.00
2017-12-27T06:21:15.769Z,0.00
2017-12-27T06:22:15.749Z,0.00
2017-12-27T06:23:15.730Z,0.00
2017-12-27T06:24:15.705Z,0.00
2017-12-27T06:25:15.689Z,0.00
2017-12-27T06:26:15.663Z,0.00
2017-12-27T06:27:15.708Z,0.00
2017-12-27T06:28:15.621Z,0.00
2017-12-27T06:29:15.602Z,0.00
2017-12-27T06:30:15.574Z,0.00
2017-12-27T06:31:15.562Z,0.00
2017-12-27T06:32:15.530Z,0.00
2017-12-27T06:33:15.512Z,0.00
2017-12-27T06:34:15.491Z,0.00
2017-12-27T06:35:15.467Z,0.00
2017-12-27T06:36:15.449Z,0.00
2017-12-27T06:37:15.419Z,0.00
2017-12-27T06:38:15.400Z,0.00
2017-12-27T06:39:15.390Z,0.00
2017-12-27T06:40:15.407Z,0.00
2017-12-27T06:41:15.340Z,0.00
2017-12-27T06:42:15.312Z,0.00
2017-12-27T06:43:15.297Z,0.00
2017-12-27T06:44:15.268Z,0.00
2017-12-27T06:45:15.245Z,0.00
2017-12-27T06:46:15.229Z,0.00
2017-12-27T06:47:15.211Z,0.00
2017-12-27T06:48:15.182Z,0.00
2017-12-27T06:49:15.159Z,0.00
2017-12-27T06:50:15.141Z,0.00
2017-12-27T06:51:15.120Z,0.00
2017-12-27T06:52:15.101Z,0.00
2017-12-27T06:53:15.076Z,0.00
2017-12-27T06:54:15.052Z,0.00
2017-12-27T06:55:15.030Z,0.00
2017-12-27T06:56:15.010Z,0.00
2017-12-27T06:57:14.991Z,0.00
2017-12-27T06:58:14.962Z,0.00
2017-12-27T06:59:14.949Z,0.00
2017-12-27T07:00:14.924Z,0.00
2017-12-27T07:01:14.903Z,0.00
2017-12-27T07:02:14.877Z,0.00
2017-12-27T07:03:14.859Z,0.00
2017-12-27T07:04:14.836Z,0.00
2017-12-27T07:05:14.810Z,0.00
2017-12-27T07:06:14.789Z,0.00
2017-12-27T07:07:14.769Z,0.00
2017-12-27T07:08:14.750Z,0.00
2017-12-27T07:09:14.729Z,0.00
2017-12-27T07:10:14.702Z,0.00
2017-12-27T07:11:14.678Z,0.00
2017-12-27T07:12:14.658Z,0.00
2017-12-27T07:13:14.636Z,0.00
2017-12-27T07:14:14.615Z,0.00
2017-12-27T07:15:14.606Z,0.00
2017-12-27T07:16:14.569Z,0.00
2017-12-27T07:17:14.550Z,0.00
2017-12-27T07:18:14.529Z,0.00
2017-12-27T07:19:14.508Z,0.00
2017-12-27T07:20:14.490Z,0.00
2017-12-27T07:21:14.461Z,0.00
2017-12-27T07:22:14.441Z,0.00
2017-12-27T07:23:14.421Z,0.00
2017-12-27T07:24:14.396Z,0.00
2017-12-27T07:25:14.375Z,0.00
2017-12-27T07:26:14.354Z,0.00
2017-12-27T07:27:14.331Z,0.00
2017-12-27T07:28:14.311Z,0.00
2017-12-27T07:29:14.291Z,0.00
2017-12-27T07:30:14.270Z,0.00
2017-12-27T07:31:14.249Z,0.00
2017-12-27T07:32:14.231Z,0.00
2017-12-27T07:33:14.201Z,0.00
2017-12-27T07:34:14.181Z,0.00
2017-12-27T07:35:14.161Z,0.00
2017-12-27T07:36:14.145Z,0.00
2017-12-27T07:37:14.116Z,0.00
2017-12-27T07:38:14.089Z,0.00
2017-12-27T07:39:14.069Z,0.00
2017-12-27T07:40:14.054Z,0.00
2017-12-27T07:41:14.030Z,0.00
2017-12-27T07:42:14.002Z,0.00
2017-12-27T07:43:13.983Z,0.00
2017-12-27T07:44:13.959Z,0.00
2017-12-27T07:45:13.943Z,0.00
2017-12-27T07:46:13.919Z,0.00
2017-12-27T07:47:13.903Z,0.00
2017-12-27T07:48:13.929Z,0.00
2017-12-27T07:49:13.851Z,0.00
2017-12-27T07:50:13.876Z,0.00
2017-12-27T07:51:13.812Z,0.00
2017-12-27T07:52:13.837Z,0.00
2017-12-27T07:53:13.765Z,0.00
2017-12-27T07:54:13.897Z,0.00
2017-12-27T07:55:13.727Z,0.00
2017-12-27T07:56:13.711Z,0.00
2017-12-27T07:57:13.677Z,0.00
2017-12-27T07:58:13.659Z,0.00
2017-12-27T07:59:13.647Z,0.00
2017-12-27T08:00:13.616Z,0.00
2017-12-27T08:01:13.588Z,0.00
2017-12-27T08:02:13.671Z,0.00
2017-12-27T08:03:13.549Z,0.00
2017-12-27T08:04:13.629Z,0.00
2017-12-27T08:05:13.510Z,0.00
2017-12-27T08:06:13.492Z,0.00
2017-12-27T08:07:13.459Z,0.00
2017-12-27T08:08:13.448Z,0.00
2017-12-27T08:09:13.416Z,0.00
2017-12-27T08:10:13.418Z,0.00
2017-12-27T08:11:13.373Z,0.00
2017-12-27T08:12:13.364Z,0.00
2017-12-27T08:13:13.331Z,0.00
2017-12-27T08:14:13.422Z,0.00
2017-12-27T08:15:13.289Z,0.00
2017-12-27T08:16:13.280Z,0.00
2017-12-27T08:17:13.257Z,0.00
2017-12-27T08:18:13.315Z,5.63
2017-12-27T08:19:13.202Z,5.63
2017-12-27T08:20:13.182Z,5.63
2017-12-27T08:21:13.157Z,5.63
2017-12-27T08:22:13.145Z,5.63
2017-12-27T08:23:13.116Z,5.63
2017-12-27T08:24:13.094Z,5.63
2017-12-27T08:25:13.076Z,5.63
2017-12-27T08:26:13.074Z,5.63
2017-12-27T08:27:13.029Z,5.63
2017-12-27T08:28:13.008Z,5.63
2017-12-27T08:29:12.982Z,5.63
2017-12-27T08:30:12.967Z,5.63
2017-12-27T08:31:12.941Z,5.63
2017-12-27T08:32:12.920Z,5.63
2017-12-27T08:33:12.895Z,5.63
2017-12-27T08:34:12.873Z,5.63
2017-12-27T08:35:12.849Z,5.63
2017-12-27T08:36:12.836Z,5.63
2017-12-27T08:37:12.808Z,5.63
2017-12-27T08:38:12.784Z,5.63
2017-12-27T08:39:12.764Z,11.25
2017-12-27T08:40:12.741Z,11.25
2017-12-27T08:41:12.720Z,11.25
2017-12-27T08:42:12.704Z,11.25
2017-12-27T08:43:12.677Z,11.25
2017-12-27T08:44:12.659Z,11.25
2017-12-27T08:45:12.631Z,11.25
2017-12-27T08:46:12.610Z,11.25
2017-12-27T08:47:12.597Z,11.25
2017-12-27T08:48:12.569Z,5.63
2017-12-27T08:49:12.544Z,5.63
2017-12-27T08:50:12.526Z,5.63
2017-12-27T08:51:12.500Z,5.63
2017-12-27T08:52:12.479Z,5.63
2017-12-27T08:53:12.465Z,5.63
2017-12-27T08:54:12.436Z,5.63
2017-12-27T08:55:12.420Z,11.25
2017-12-27T08:56:12.399Z,11.25
2017-12-27T08:57:12.371Z,11.25
2017-12-27T08:58:12.353Z,11.25
2017-12-27T08:59:12.332Z,11.25
2017-12-27T09:00:12.329Z,11.25
2017-12-27T09:01:12.282Z,11.25
2017-12-27T09:02:12.265Z,11.25
2017-12-27T09:03:12.245Z,11.25
2017-12-27T09:04:12.236Z,11.25
2017-12-27T09:05:12.199Z,11.25
2017-12-27T09:06:12.176Z,11.25
2017-12-27T09:07:12.154Z,11.25
2017-12-27T09:08:12.140Z,16.88
2017-12-27T09:09:12.112Z,16.88
2017-12-27T09:10:12.102Z,11.25
2017-12-27T09:11:12.075Z,11.25
2017-12-27T09:12:12.050Z,16.88
2017-12-27T09:13:12.031Z,16.88
2017-12-27T09:14:12.011Z,16.88
2017-12-27T09:15:11.995Z,16.88
2017-12-27T09:16:11.963Z,16.88
2017-12-27T09:17:11.947Z,16.88
2017-12-27T09:18:11.919Z,16.88
2017-12-27T09:19:11.898Z,16.88
2017-12-27T09:20:11.880Z,16.88
2017-12-27T09:21:11.856Z,16.88
2017-12-27T09:22:11.831Z,16.88
2017-12-27T09:23:11.811Z,16.88
2017-12-27T09:24:11.793Z,16.88
2017-12-27T09:25:11.766Z,16.88
2017-12-27T09:26:11.751Z,16.88
2017-12-27T09:27:11.727Z,16.88
2017-12-27T09:28:11.704Z,16.88
2017-12-27T09:29:11.678Z,16.88
2017-12-27T09:30:11.659Z,16.88
2017-12-27T09:31:11.639Z,11.25
2017-12-27T09:32:11.623Z,11.25
2017-12-27T09:33:11.597Z,11.25
2017-12-27T09:34:11.590Z,11.25
2017-12-27T09:35:11.560Z,11.25
2017-12-27T09:36:11.529Z,11.25
2017-12-27T09:37:11.511Z,16.88
2017-12-27T09:38:11.489Z,11.25
2017-12-27T09:39:11.472Z,11.25
2017-12-27T09:40:11.454Z,11.25
2017-12-27T09:41:11.426Z,16.88
2017-12-27T09:42:11.406Z,16.88
2017-12-27T09:43:11.381Z,16.88
2017-12-27T09:44:11.361Z,16.88
2017-12-27T09:45:11.340Z,16.88
2017-12-27T09:46:11.316Z,22.50
2017-12-27T09:47:11.294Z,22.50
2017-12-27T09:48:11.286Z,22.50
2017-12-27T09:49:11.252Z,22.50
2017-12-27T09:50:11.239Z,22.50
2017-12-27T09:51:11.209Z,22.50
2017-12-27T09:52:11.189Z,16.88
2017-12-27T09:53:11.168Z,22.50
2017-12-27T09:54:11.147Z,16.88
2017-12-27T09:55:11.123Z,16.88
2017-12-27T09:56:11.100Z,16.88
2017-12-27T09:57:11.080Z,16.88
2017-12-27T09:58:11.059Z,16.88
2017-12-27T09:59:11.038Z,16.88
2017-12-27T10:00:11.025Z,16.88
2017-12-27T10:01:10.997Z,16.88
2017-12-27T10:02:10.979Z,16.88
2017-12-27T10:03:10.958Z,16.88
2017-12-27T10:04:10.937Z,16.88
2017-12-27T10:05:10.912Z,16.88
2017-12-27T10:06:10.901Z,16.88
2017-12-27T10:07:10.870Z,16.88
2017-12-27T10:08:10.847Z,16.88
2017-12-27T10:09:10.831Z,16.88
2017-12-27T10:10:10.809Z,16.88
2017-12-27T10:11:10.783Z,16.88
2017-12-27T10:12:10.815Z,16.88
2017-12-27T10:13:10.752Z,16.88
2017-12-27T10:14:10.720Z,16.88
2017-12-27T10:15:10.699Z,16.88
2017-12-27T10:16:10.681Z,16.88
2017-12-27T10:17:10.664Z,16.88
2017-12-27T10:18:10.639Z,16.88
2017-12-27T10:19:10.615Z,11.25
2017-12-27T10:20:10.601Z,11.25
2017-12-27T10:21:10.568Z,11.25
2017-12-27T10:22:10.611Z,11.25
2017-12-27T10:23:10.535Z,11.25
2017-12-27T10:24:10.519Z,11.25
2017-12-27T10:25:10.543Z,11.25
2017-12-27T10:26:10.474Z,11.25
2017-12-27T10:27:10.450Z,11.25
2017-12-27T10:28:10.430Z,11.25
2017-12-27T10:29:10.408Z,11.25
2017-12-27T10:30:10.385Z,11.25
2017-12-27T10:31:10.364Z,11.25
2017-12-27T10:32:10.346Z,11.25
2017-12-27T10:33:10.323Z,11.25
2017-12-27T10:34:10.298Z,16.88
2017-12-27T10:35:10.290Z,16.88
2017-12-27T10:36:10.261Z,16.88
2017-12-27T10:37:10.238Z,16.88
2017-12-27T10:38:10.220Z,16.88
2017-12-27T10:39:10.196Z,16.88
2017-12-27T10:40:10.183Z,16.88
2017-12-27T10:41:10.160Z,16.88
2017-12-27T10:42:10.138Z,22.50
2017-12-27T10:43:10.112Z,22.50
2017-12-27T10:44:10.090Z,22.50
2017-12-27T10:45:10.118Z,16.88
2017-12-27T10:46:10.052Z,16.88
2017-12-27T10:47:10.030Z,16.88
2017-12-27T10:48:10.004Z,16.88
2017-12-27T10:49:09.992Z,22.50
2017-12-27T10:50:09.963Z,16.88
2017-12-27T10:51:09.947Z,22.50
2017-12-27T10:52:09.924Z,22.50
2017-12-27T10:53:09.900Z,22.50
2017-12-27T10:54:09.880Z,22.50
2017-12-27T10:55:09.860Z,22.50
2017-12-27T10:56:09.841Z,22.50
2017-12-27T10:57:09.818Z,22.50
2017-12-27T10:58:09.802Z,22.50
2017-12-27T10:59:09.773Z,22.50
2017-12-27T11:00:09.758Z,22.50
2017-12-27T11:01:09.741Z,22.50
2017-12-27T11:02:09.716Z,22.50
2017-12-27T11:03:09.696Z,22.50
2017-12-27T11:04:09.669Z,22.50
2017-12-27T11:05:09.653Z,22.50
2017-12-27T11:06:09.631Z,22.50
2017-12-27T11:07:09.614Z,16.88
2017-12-27T11:08:09.598Z,16.88
2017-12-27T11:09:09.567Z,16.88
2017-12-27T11:10:09.560Z,16.88
2017-12-27T11:11:09.528Z,16.88
2017-12-27T11:12:09.507Z,22.50
2017-12-27T11:13:09.500Z,22.50
2017-12-27T11:14:09.466Z,22.50
2017-12-27T11:15:09.449Z,22.50
2017-12-27T11:16:09.431Z,22.50
2017-12-27T11:17:09.413Z,22.50
2017-12-27T11:18:09.385Z,22.50
2017-12-27T11:19:09.361Z,22.50
2017-12-27T11:20:09.340Z,22.50
2017-12-27T11:21:09.321Z,28.13
2017-12-27T11:22:09.307Z,28.13
2017-12-27T11:23:09.269Z,28.13
2017-12-27T11:24:09.249Z,33.75
2017-12-27T11:25:09.231Z,33.75
2017-12-27T11:26:09.218Z,28.13
2017-12-27T11:27:09.189Z,28.13
2017-12-27T11:28:09.180Z,33.75
2017-12-27T11:29:09.149Z,28.13
2017-12-27T11:30:09.134Z,28.13
2017-12-27T11:31:09.112Z,28.13
2017-12-27T11:32:09.088Z,28.13
2017-12-27T11:33:09.063Z,28.13
2017-12-27T11:34:09.051Z,28.13
2017-12-27T11:35:09.028Z,28.13
2017-12-27T11:36:09.005Z,28.13
2017-12-27T11:37:08.983Z,28.13
2017-12-27T11:38:08.970Z,28.13
2017-12-27T11:39:09.042Z,33.75
2017-12-27T11:40:08.921Z,33.75
2017-12-27T11:41:08.961Z,33.75
2017-12-27T11:42:08.889Z,39.38
2017-12-27T11:43:08.861Z,39.38
2017-12-27T11:44:08.850Z,33.75
2017-12-27T11:45:08.921Z,33.75
2017-12-27T11:46:08.809Z,39.38
2017-12-27T11:47:08.781Z,33.75
2017-12-27T11:48:08.758Z,33.75
2017-12-27T11:49:08.733Z,39.38
2017-12-27T11:50:08.715Z,33.75
2017-12-27T11:51:08.841Z,33.75
2017-12-27T11:52:08.689Z,33.75
2017-12-27T11:53:08.653Z,28.13
2017-12-27T11:54:08.636Z,28.13
2017-12-27T11:55:08.751Z,28.13
2017-12-27T11:56:08.593Z,22.50
2017-12-27T11:57:08.675Z,28.13
2017-12-27T11:58:08.551Z,28.13
2017-12-27T11:59:08.616Z,22.50
2017-12-27T12:00:08.531Z,22.50
2017-12-27T12:01:08.647Z,28.13
2017-12-27T12:02:08.470Z,28.13
2017-12-27T12:03:08.452Z,28.13
2017-12-27T12:04:08.438Z,33.75
2017-12-27T12:05:08.406Z,33.75
2017-12-27T12:06:08.397Z,33.75
2017-12-27T12:07:08.378Z,33.75
2017-12-27T12:08:08.345Z,33.75
2017-12-27T12:09:08.336Z,28.13
2017-12-27T12:10:08.309Z,28.13
2017-12-27T12:11:08.323Z,28.13
2017-12-27T12:12:08.271Z,28.13
2017-12-27T12:13:08.242Z,28.13
2017-12-27T12:14:08.223Z,28.13
2017-12-27T12:15:08.205Z,28.13
2017-12-27T12:16:08.179Z,28.13
2017-12-27T12:17:08.160Z,28.13
2017-12-27T12:18:08.139Z,28.13
2017-12-27T12:19:08.118Z,28.13
2017-12-27T12:20:08.100Z,28.13
2017-12-27T12:21:08.084Z,28.13
2017-12-27T12:22:08.060Z,33.75
2017-12-27T12:23:08.041Z,33.75
2017-12-27T12:24:08.042Z,33.75
2017-12-27T12:25:07.999Z,28.13
2017-12-27T12:26:07.982Z,28.13
2017-12-27T12:27:07.959Z,28.13
2017-12-27T12:28:07.938Z,28.13
2017-12-27T12:29:07.926Z,28.13
2017-12-27T12:30:07.896Z,28.13
2017-12-27T12:31:07.872Z,28.13
2017-12-27T12:32:07.856Z,22.50
2017-12-27T12:33:07.829Z,22.50
2017-12-27T12:34:07.819Z,22.50
2017-12-27T12:35:07.797Z,22.50
2017-12-27T12:36:07.771Z,22.50
2017-12-27T12:37:07.749Z,28.13
2017-12-27T12:38:07.738Z,28.13
2017-12-27T12:39:07.713Z,22.50
2017-12-27T12:40:07.691Z,22.50
2017-12-27T12:41:07.672Z,22.50
2017-12-27T12:42:07.649Z,22.50
2017-12-27T12:43:07.629Z,22.50
2017-12-27T12:44:07.630Z,22.50
2017-12-27T12:45:07.588Z,22.50
2017-12-27T12:46:07.568Z,22.50
2017-12-27T12:47:07.556Z,22.50
2017-12-27T12:48:07.529Z,22.50
2017-12-27T12:49:07.510Z,22.50
2017-12-27T12:50:07.492Z,22.50
2017-12-27T12:51:07.472Z,22.50
2017-12-27T12:52:07.449Z,22.50
2017-12-27T12:53:07.427Z,22.50
2017-12-27T12:54:07.409Z,22.50
2017-12-27T12:55:07.394Z,22.50
2017-12-27T12:56:07.368Z,28.13
2017-12-27T12:57:07.350Z,28.13
2017-12-27T12:58:07.327Z,28.13
2017-12-27T12:59:07.308Z,28.13
2017-12-27T13:00:07.294Z,22.50
2017-12-27T13:01:07.265Z,22.50
2017-12-27T13:02:07.259Z,22.50
2017-12-27T13:03:07.231Z,22.50
2017-12-27T13:04:07.212Z,16.88
2017-12-27T13:05:07.189Z,16.88
2017-12-27T13:06:07.174Z,16.88
2017-12-27T13:07:07.146Z,16.88
2017-12-27T13:08:07.124Z,16.88
2017-12-27T13:09:07.106Z,16.88